createdAt,value
2023-03-31T00:00:48.167Z,45.29
2023-03-31T00:01:48.289Z,50.35
2023-03-31T00:02:48.249Z,51.17
2023-03-31T00:03:48.260Z,45.52
2023-03-31T00:04:48.176Z,55.38
2023-03-31T00:05:48.238Z,50.16
2023-03-31T00:06:48.116Z,44.44
2023-03-31T00:07:48.143Z,55.26
2023-03-31T00:08:48.135Z,45.59
2023-03-31T00:09:48.089Z,58.60
2023-03-31T00:10:48.073Z,45.27
2023-03-31T00:11:48.096Z,66.20
2023-03-31T00:12:48.104Z,54.49
2023-03-31T00:13:48.079Z,55.75
2023-03-31T00:14:48.077Z,43.93
2023-03-31T00:15:48.076Z,44.96
2023-03-31T00:16:48.132Z,56.36
2023-03-31T00:17:48.082Z,45.72
2023-03-31T00:18:48.085Z,45.00
2023-03-31T00:19:48.042Z,49.20
2023-03-31T00:20:48.034Z,51.06
2023-03-31T00:21:48.018Z,44.57
2023-03-31T00:22:47.993Z,53.26
2023-03-31T00:23:47.980Z,52.58
2023-03-31T00:24:48.114Z,50.10
2023-03-31T00:25:47.964Z,50.11
2023-03-31T00:26:47.981Z,49.87
2023-03-31T00:27:47.968Z,54.55
2023-03-31T00:28:47.937Z,47.03
2023-03-31T00:29:47.956Z,44.77
2023-03-31T00:30:47.994Z,47.36
2023-03-31T00:31:47.987Z,44.65
2023-03-31T00:32:47.979Z,49.72
2023-03-31T00:33:47.941Z,55.70
2023-03-31T00:34:47.911Z,45.62
2023-03-31T00:35:47.930Z,53.40
2023-03-31T00:36:48.030Z,53.85
2023-03-31T00:37:47.892Z,50.39
2023-03-31T00:38:47.905Z,51.66
2023-03-31T00:39:47.886Z,55.27
2023-03-31T00:40:47.870Z,52.48
2023-03-31T00:41:47.848Z,52.11
2023-03-31T00:42:47.885Z,45.59
2023-03-31T00:43:47.831Z,61.07
2023-03-31T00:44:47.858Z,44.99
2023-03-31T00:45:48.840Z,49.20
2023-03-31T00:46:47.829Z,46.26
2023-03-31T00:47:47.910Z,51.65
2023-03-31T00:48:47.788Z,52.64
2023-03-31T00:49:47.797Z,56.07
2023-03-31T00:50:47.796Z,43.99
2023-03-31T00:51:47.832Z,43.39
2023-03-31T00:52:47.757Z,44.36
2023-03-31T00:53:47.777Z,45.62
2023-03-31T00:54:47.757Z,52.12
2023-03-31T00:55:47.761Z,50.64
2023-03-31T00:56:48.777Z,51.36
2023-03-31T00:57:47.714Z,45.05
2023-03-31T00:58:47.739Z,45.92
2023-03-31T00:59:47.743Z,51.60
2023-03-31T01:00:47.697Z,43.17
2023-03-31T01:01:47.736Z,50.38
2023-03-31T01:02:47.733Z,49.34
2023-03-31T01:03:47.692Z,55.35
2023-03-31T01:04:47.681Z,44.95
2023-03-31T01:05:47.653Z,51.20
2023-03-31T01:06:47.662Z,49.54
2023-03-31T01:07:47.733Z,49.67
2023-03-31T01:08:47.687Z,52.09
2023-03-31T01:09:47.687Z,53.42
2023-03-31T01:10:47.673Z,47.64
2023-03-31T01:11:47.628Z,46.25
2023-03-31T01:12:47.617Z,44.74
2023-03-31T01:13:47.603Z,54.23
2023-03-31T01:14:47.612Z,49.75
2023-03-31T01:15:47.598Z,46.71
2023-03-31T01:16:47.651Z,54.60
2023-03-31T01:17:47.758Z,43.40
2023-03-31T01:18:47.594Z,43.51
2023-03-31T01:19:47.592Z,43.75
2023-03-31T01:20:47.534Z,44.09
2023-03-31T01:21:47.573Z,50.98
2023-03-31T01:22:47.545Z,43.63
2023-03-31T01:23:47.556Z,44.61
2023-03-31T01:24:47.523Z,50.46
2023-03-31T01:25:47.518Z,45.16
2023-03-31T01:26:47.489Z,45.23
2023-03-31T01:27:47.500Z,50.07
2023-03-31T01:28:47.479Z,44.56
2023-03-31T01:29:47.481Z,46.88
2023-03-31T01:30:47.486Z,65.57
2023-03-31T01:31:47.534Z,43.70
2023-03-31T01:32:47.511Z,43.46
2023-03-31T01:33:47.475Z,43.82
2023-03-31T01:34:47.450Z,43.73
2023-03-31T01:35:47.520Z,43.73
2023-03-31T01:36:48.247Z,47.63
2023-03-31T01:37:47.418Z,46.59
2023-03-31T01:38:47.433Z,43.71
2023-03-31T01:39:47.413Z,43.91
2023-03-31T01:40:47.441Z,50.64
2023-03-31T01:41:47.387Z,44.01
2023-03-31T01:42:47.368Z,44.57
2023-03-31T01:43:47.385Z,55.39
2023-03-31T01:44:47.369Z,56.82
2023-03-31T01:45:47.373Z,55.97
2023-03-31T01:46:47.416Z,43.75
2023-03-31T01:47:47.436Z,44.37
2023-03-31T01:48:47.328Z,45.54
2023-03-31T01:49:47.317Z,52.31
2023-03-31T01:50:48.263Z,49.27
2023-03-31T01:51:47.362Z,58.30
2023-03-31T01:52:47.315Z,51.11
2023-03-31T01:53:47.306Z,52.17
2023-03-31T01:54:47.287Z,48.31
2023-03-31T01:55:47.374Z,50.91
2023-03-31T01:56:47.333Z,49.73
2023-03-31T01:57:47.312Z,50.75
2023-03-31T01:58:47.247Z,51.31
2023-03-31T01:59:47.265Z,46.44
2023-03-31T02:00:47.233Z,49.63
2023-03-31T02:01:47.270Z,44.99
2023-03-31T02:02:47.319Z,43.67
2023-03-31T02:04:19.698Z,43.70
2023-03-31T02:04:47.220Z,43.81
2023-03-31T02:05:48.179Z,43.74
2023-03-31T02:07:19.717Z,43.76
2023-03-31T02:08:19.177Z,44.72
2023-03-31T02:09:19.783Z,58.84
2023-03-31T02:10:19.123Z,44.58
2023-03-31T02:11:19.830Z,58.17
2023-03-31T02:11:47.892Z,53.59
2023-03-31T02:12:47.180Z,55.91
2023-03-31T02:13:47.125Z,49.41
2023-03-31T02:14:47.162Z,49.50
2023-03-31T02:15:47.162Z,52.13
2023-03-31T02:16:47.222Z,47.40
2023-03-31T02:17:47.180Z,51.69
2023-03-31T02:18:47.126Z,53.24
2023-03-31T02:19:47.091Z,44.99
2023-03-31T02:20:47.131Z,44.30
2023-03-31T02:21:47.074Z,51.91
2023-03-31T02:22:47.073Z,51.96
2023-03-31T02:23:47.065Z,47.13
2023-03-31T02:24:47.057Z,59.73
2023-03-31T02:25:47.103Z,45.66
2023-03-31T02:26:47.086Z,49.00
2023-03-31T02:27:47.067Z,50.30
2023-03-31T02:28:47.054Z,44.99
2023-03-31T02:29:47.050Z,50.77
2023-03-31T02:30:47.021Z,45.36
2023-03-31T02:31:47.036Z,52.57
2023-03-31T02:32:47.134Z,48.83
2023-03-31T02:33:46.982Z,54.05
2023-03-31T02:34:47.006Z,57.25
2023-03-31T02:35:47.051Z,55.45
2023-03-31T02:36:46.957Z,52.09
2023-03-31T02:37:46.955Z,54.31
2023-03-31T02:38:47.891Z,51.92
2023-03-31T02:39:46.947Z,50.74
2023-03-31T02:40:46.959Z,57.96
2023-03-31T02:41:46.970Z,50.85
2023-03-31T02:42:46.923Z,57.89
2023-03-31T02:43:46.905Z,54.86
2023-03-31T02:44:46.907Z,52.24
2023-03-31T02:45:46.950Z,54.36
2023-03-31T02:46:47.007Z,49.70
2023-03-31T02:47:46.902Z,47.60
2023-03-31T02:48:46.877Z,51.51
2023-03-31T02:49:47.815Z,54.21
2023-03-31T02:50:46.887Z,47.17
2023-03-31T02:51:46.885Z,59.38
2023-03-31T02:52:46.867Z,55.36
2023-03-31T02:53:46.901Z,55.19
2023-03-31T02:54:46.833Z,56.23
2023-03-31T02:55:46.837Z,61.86
2023-03-31T02:56:46.858Z,56.48
2023-03-31T02:57:46.801Z,59.40
2023-03-31T02:58:46.805Z,60.18
2023-03-31T02:59:46.792Z,57.42
2023-03-31T03:00:46.776Z,58.13
2023-03-31T03:01:46.850Z,62.81
2023-03-31T03:02:46.850Z,49.39
2023-03-31T03:03:46.758Z,59.30
2023-03-31T03:04:46.844Z,55.23
2023-03-31T03:05:46.738Z,53.89
2023-03-31T03:06:46.750Z,61.83
2023-03-31T03:07:46.761Z,55.65
2023-03-31T03:08:46.745Z,49.80
2023-03-31T03:09:46.727Z,58.55
2023-03-31T03:10:46.716Z,60.59
2023-03-31T03:11:47.788Z,58.89
2023-03-31T03:12:47.259Z,51.77
2023-03-31T03:13:46.698Z,50.31
2023-03-31T03:14:46.716Z,56.16
2023-03-31T03:15:46.673Z,61.62
2023-03-31T03:16:46.709Z,56.72
2023-03-31T03:17:46.749Z,57.59
2023-03-31T03:18:46.654Z,53.11
2023-03-31T03:19:46.638Z,57.60
2023-03-31T03:20:46.634Z,59.78
2023-03-31T03:21:46.627Z,57.80
2023-03-31T03:22:46.630Z,53.86
2023-03-31T03:23:46.605Z,64.19
2023-03-31T03:24:46.628Z,62.67
2023-03-31T03:25:46.625Z,60.71
2023-03-31T03:26:46.592Z,54.56
2023-03-31T03:27:46.644Z,65.93
2023-03-31T03:28:46.609Z,51.19
2023-03-31T03:29:46.560Z,56.60
2023-03-31T03:30:46.583Z,62.76
2023-03-31T03:31:46.671Z,64.66
2023-03-31T03:32:46.633Z,65.97
2023-03-31T03:33:46.572Z,65.60
2023-03-31T03:34:46.546Z,54.87
2023-03-31T03:35:46.593Z,60.29
2023-03-31T03:36:46.506Z,53.90
2023-03-31T03:37:46.505Z,63.62
2023-03-31T03:38:46.509Z,67.19
2023-03-31T03:39:46.524Z,63.56
2023-03-31T03:40:48.283Z,66.71
2023-03-31T03:41:46.474Z,60.97
2023-03-31T03:42:46.490Z,60.16
2023-03-31T03:43:46.463Z,65.46
2023-03-31T03:44:46.485Z,65.18
2023-03-31T03:45:46.439Z,64.11
2023-03-31T03:46:46.520Z,63.75
2023-03-31T04:04:01.587Z,77.23
2023-03-31T04:05:01.648Z,69.68
2023-03-31T04:06:02.718Z,58.50
2023-03-31T04:07:02.725Z,65.57
2023-03-31T04:08:02.727Z,60.50
2023-03-31T04:09:02.752Z,59.66
2023-03-31T04:10:02.717Z,68.11
2023-03-31T04:11:02.697Z,73.04
2023-03-31T04:12:03.360Z,62.39
2023-03-31T04:13:03.405Z,62.91
2023-03-31T04:14:02.671Z,63.55
2023-03-31T04:15:37.237Z,65.43
2023-03-31T04:16:02.690Z,69.96
2023-03-31T04:17:02.643Z,57.01
2023-03-31T04:18:02.680Z,66.69
2023-03-31T04:19:02.622Z,70.47
2023-03-31T04:20:02.610Z,62.52
2023-03-31T04:21:03.331Z,64.09
2023-03-31T04:22:02.654Z,62.54
2023-03-31T04:23:02.616Z,65.12
2023-03-31T04:24:02.621Z,65.69
2023-03-31T04:25:02.596Z,70.76
2023-03-31T04:26:02.626Z,57.02
2023-03-31T04:27:02.562Z,59.61
2023-03-31T04:28:02.541Z,67.47
2023-03-31T04:29:02.549Z,69.03
2023-03-31T04:30:02.548Z,69.26
2023-03-31T04:31:02.534Z,71.64
2023-03-31T04:32:02.576Z,61.20
2023-03-31T04:33:02.547Z,68.22
2023-03-31T04:34:02.757Z,72.65
2023-03-31T04:35:02.516Z,64.10
2023-03-31T04:36:02.529Z,65.66
2023-03-31T04:37:04.171Z,73.20
2023-03-31T04:38:02.483Z,65.97
2023-03-31T04:39:02.487Z,65.65
2023-03-31T04:40:02.471Z,71.54
2023-03-31T04:41:02.473Z,64.53
2023-03-31T04:42:02.471Z,71.26
2023-03-31T04:43:02.438Z,70.36
2023-03-31T04:44:02.421Z,68.13
2023-03-31T04:45:02.465Z,69.99
2023-03-31T04:46:02.508Z,68.73
2023-03-31T04:47:02.385Z,63.06
2023-03-31T04:48:02.443Z,68.57
2023-03-31T04:49:02.378Z,71.60
2023-03-31T04:50:02.402Z,69.11
2023-03-31T04:51:02.379Z,68.40
2023-03-31T04:52:02.359Z,66.84
2023-03-31T04:53:02.361Z,71.91
2023-03-31T04:54:02.348Z,55.92
2023-03-31T04:55:02.365Z,59.47
2023-03-31T04:56:03.449Z,59.28
2023-03-31T04:57:02.389Z,72.83
2023-03-31T04:58:02.321Z,66.54
2023-03-31T04:59:02.297Z,64.89
2023-03-31T05:00:02.342Z,58.86
2023-03-31T05:01:02.398Z,59.42
2023-03-31T05:02:02.395Z,67.66
2023-03-31T05:03:02.340Z,70.43
2023-03-31T05:04:02.266Z,66.49
2023-03-31T05:05:02.256Z,66.39
2023-03-31T05:06:02.296Z,71.60
2023-03-31T05:07:02.271Z,66.75
2023-03-31T05:08:02.323Z,66.73
2023-03-31T05:09:02.245Z,63.33
2023-03-31T05:10:02.216Z,70.91
2023-03-31T05:11:02.245Z,70.49
2023-03-31T05:12:02.216Z,73.41
2023-03-31T05:13:02.196Z,68.84
2023-03-31T05:14:02.229Z,67.85
2023-03-31T05:15:02.186Z,70.41
2023-03-31T05:16:02.234Z,70.41
2023-03-31T05:17:02.193Z,64.30
2023-03-31T05:18:02.204Z,65.80
2023-03-31T05:19:02.214Z,73.77
2023-03-31T05:20:02.185Z,71.90
2023-03-31T05:21:02.131Z,70.56
2023-03-31T05:22:02.130Z,66.66
2023-03-31T05:23:02.174Z,66.26
2023-03-31T05:24:02.170Z,65.79
2023-03-31T05:25:02.221Z,73.16
2023-03-31T05:26:02.165Z,72.41
2023-03-31T05:27:02.088Z,65.92
2023-03-31T05:28:03.383Z,70.96
2023-03-31T05:29:02.095Z,68.84
2023-03-31T05:30:02.129Z,72.06
2023-03-31T05:31:02.095Z,67.33
2023-03-31T05:32:02.141Z,73.17
2023-03-31T05:33:02.155Z,71.70
2023-03-31T05:34:02.079Z,70.69
2023-03-31T05:35:03.204Z,73.71
2023-03-31T05:36:02.045Z,72.13
2023-03-31T05:37:02.016Z,69.10
2023-03-31T05:38:02.040Z,74.40
2023-03-31T05:39:02.040Z,71.91
2023-03-31T05:40:02.481Z,72.34
2023-03-31T05:41:01.998Z,72.40
2023-03-31T05:42:02.781Z,73.13
2023-03-31T05:43:01.955Z,70.91
2023-03-31T05:44:03.733Z,70.13
2023-03-31T05:45:02.066Z,73.70
2023-03-31T05:46:02.014Z,69.57
2023-03-31T05:47:01.929Z,72.40
2023-03-31T05:48:01.982Z,69.95
2023-03-31T05:49:01.915Z,69.44
2023-03-31T05:50:01.933Z,67.62
2023-03-31T05:51:01.897Z,69.32
2023-03-31T05:52:01.917Z,72.64
2023-03-31T05:53:01.885Z,70.45
2023-03-31T05:54:02.814Z,71.91
2023-03-31T05:55:02.876Z,70.67
2023-03-31T05:56:02.436Z,68.57
2023-03-31T05:57:02.081Z,66.79
2023-03-31T05:58:01.865Z,68.91
2023-03-31T05:59:01.844Z,69.76
2023-03-31T06:00:01.845Z,64.93
2023-03-31T06:01:01.862Z,65.66
2023-03-31T06:02:01.908Z,71.91
2023-03-31T06:03:02.030Z,65.76
2023-03-31T06:04:01.935Z,73.61
2023-03-31T06:05:01.811Z,67.54
2023-03-31T06:06:01.809Z,69.95
2023-03-31T06:07:01.790Z,63.68
2023-03-31T06:08:01.788Z,66.64
2023-03-31T06:09:01.803Z,65.10
2023-03-31T06:10:01.776Z,66.84
2023-03-31T06:11:01.761Z,67.39
2023-03-31T06:12:01.781Z,69.62
2023-03-31T06:13:01.772Z,66.30
2023-03-31T06:14:01.739Z,72.79
2023-03-31T06:15:01.737Z,69.25
2023-03-31T06:16:01.740Z,67.03
2023-03-31T06:17:01.737Z,68.25
2023-03-31T06:18:01.747Z,66.63
2023-03-31T06:19:01.703Z,67.65
2023-03-31T06:20:04.271Z,61.23
2023-03-31T06:21:02.684Z,67.84
2023-03-31T06:22:01.726Z,70.89
2023-03-31T06:23:02.704Z,70.76
2023-03-31T06:24:01.693Z,68.88
2023-03-31T06:25:01.923Z,67.02
2023-03-31T06:26:01.688Z,64.02
2023-03-31T06:27:01.728Z,67.36
2023-03-31T06:28:01.669Z,68.77
2023-03-31T06:29:02.130Z,63.70
2023-03-31T06:30:01.739Z,60.55
2023-03-31T06:31:02.289Z,69.80
2023-03-31T06:32:01.639Z,65.97
2023-03-31T06:33:01.659Z,70.72
2023-03-31T06:34:01.618Z,64.42
2023-03-31T06:35:01.651Z,71.25
2023-03-31T06:36:01.625Z,65.71
2023-03-31T06:37:01.609Z,68.82
2023-03-31T06:38:01.575Z,68.47
2023-03-31T06:39:01.610Z,72.49
2023-03-31T06:40:01.539Z,66.45
2023-03-31T06:41:01.592Z,71.50
2023-03-31T06:42:01.536Z,71.48
2023-03-31T06:43:01.587Z,67.32
2023-03-31T06:44:01.527Z,69.22
2023-03-31T06:45:01.604Z,69.76
2023-03-31T06:46:01.587Z,70.17
2023-03-31T06:47:01.562Z,74.84
2023-03-31T06:48:01.512Z,72.50
2023-03-31T06:49:01.622Z,69.44
2023-03-31T06:50:01.627Z,64.78
2023-03-31T06:51:01.487Z,72.82
2023-03-31T06:52:01.470Z,65.11
2023-03-31T06:53:01.688Z,71.32
2023-03-31T06:54:01.482Z,69.37
2023-03-31T06:55:01.461Z,67.54
2023-03-31T06:56:01.422Z,65.15
2023-03-31T06:57:01.450Z,69.59
2023-03-31T06:58:01.425Z,74.97
2023-03-31T06:59:01.412Z,69.13
2023-03-31T07:00:01.411Z,68.39
2023-03-31T07:01:01.428Z,65.45
2023-03-31T07:02:01.549Z,71.83
2023-03-31T07:03:01.460Z,71.27
2023-03-31T07:04:01.365Z,67.30
2023-03-31T07:05:01.377Z,70.67
2023-03-31T07:06:01.387Z,70.91
2023-03-31T07:07:01.337Z,65.52
2023-03-31T07:08:01.347Z,70.48
2023-03-31T07:09:02.300Z,61.64
2023-03-31T07:10:01.332Z,71.27
2023-03-31T07:11:01.325Z,73.18
2023-03-31T07:12:01.336Z,71.91
2023-03-31T07:13:04.361Z,71.19
2023-03-31T07:14:01.307Z,68.83
2023-03-31T07:15:01.299Z,68.53
2023-03-31T07:16:01.378Z,68.29
2023-03-31T07:17:01.285Z,73.15
2023-03-31T07:18:01.347Z,73.19
2023-03-31T07:19:01.269Z,74.32
2023-03-31T07:20:01.230Z,74.02
2023-03-31T07:21:01.285Z,73.61
2023-03-31T07:22:01.242Z,74.50
2023-03-31T07:23:01.246Z,71.01
2023-03-31T07:24:01.300Z,67.12
2023-03-31T07:25:01.198Z,71.73
2023-03-31T07:26:01.229Z,76.21
2023-03-31T07:27:01.221Z,71.20
2023-03-31T07:28:01.160Z,72.40
2023-03-31T07:29:01.169Z,67.37
2023-03-31T07:30:36.890Z,71.67
2023-03-31T07:31:01.151Z,77.06
2023-03-31T07:32:01.213Z,67.47
2023-03-31T07:33:01.212Z,64.37
2023-03-31T07:34:01.107Z,72.77
2023-03-31T07:35:01.109Z,66.52
2023-03-31T07:36:11.568Z,74.53
2023-03-31T07:37:03.129Z,73.24
2023-03-31T07:38:01.090Z,72.00
2023-03-31T07:39:01.103Z,71.01
2023-03-31T07:40:01.138Z,71.05
2023-03-31T07:41:08.383Z,74.27
2023-03-31T07:42:03.071Z,66.86
2023-03-31T07:43:01.068Z,67.17
2023-03-31T07:44:01.085Z,71.54
2023-03-31T07:45:01.022Z,70.83
2023-03-31T07:46:01.085Z,77.19
2023-03-31T07:47:01.026Z,74.40
2023-03-31T07:48:01.073Z,65.81
2023-03-31T07:49:01.002Z,70.83
2023-03-31T07:50:01.959Z,72.64
2023-03-31T07:51:01.008Z,69.79
2023-03-31T07:52:00.985Z,74.56
2023-03-31T07:53:00.983Z,68.49
2023-03-31T07:54:01.033Z,72.27
2023-03-31T07:55:00.957Z,75.73
2023-03-31T07:56:00.959Z,69.22
2023-03-31T07:57:00.982Z,68.71
2023-03-31T07:58:00.948Z,74.33
2023-03-31T07:59:00.938Z,69.29
2023-03-31T08:00:00.945Z,70.47
2023-03-31T08:01:00.917Z,72.24
2023-03-31T08:02:01.028Z,70.32
2023-03-31T08:03:00.975Z,73.24
2023-03-31T08:04:01.022Z,75.92
2023-03-31T08:05:00.900Z,68.83
2023-03-31T08:06:00.955Z,74.56
2023-03-31T08:07:00.911Z,69.30
2023-03-31T08:08:00.940Z,65.35
2023-03-31T08:09:00.906Z,75.50
2023-03-31T08:10:00.905Z,73.55
2023-03-31T08:11:00.927Z,73.11
2023-03-31T08:12:00.864Z,72.52
2023-03-31T08:13:00.827Z,70.13
2023-03-31T08:14:00.824Z,77.95
2023-03-31T08:15:00.827Z,73.63
2023-03-31T08:16:00.892Z,69.93
2023-03-31T08:17:00.798Z,70.53
2023-03-31T08:18:00.819Z,69.92
2023-03-31T08:19:00.790Z,70.28
2023-03-31T08:20:06.105Z,71.97
2023-03-31T08:21:02.778Z,73.84
2023-03-31T08:22:00.804Z,73.67
2023-03-31T08:23:00.737Z,64.84
2023-03-31T08:24:00.813Z,67.82
2023-03-31T08:25:00.805Z,69.79
2023-03-31T08:26:00.734Z,66.70
2023-03-31T08:27:00.757Z,64.31
2023-03-31T08:28:00.725Z,71.29
2023-03-31T08:29:00.774Z,66.88
2023-03-31T08:30:01.730Z,72.64
2023-03-31T08:31:00.693Z,73.61
2023-03-31T08:32:00.724Z,73.01
2023-03-31T08:33:00.794Z,69.69
2023-03-31T08:34:00.691Z,71.53
2023-03-31T08:35:01.396Z,74.18
2023-03-31T08:36:00.681Z,71.66
2023-03-31T08:37:00.667Z,70.25
2023-03-31T08:38:00.724Z,67.74
2023-03-31T08:39:00.631Z,74.05
2023-03-31T08:40:00.676Z,68.02
2023-03-31T08:41:00.624Z,61.72
2023-03-31T08:42:00.619Z,73.14
2023-03-31T08:43:00.615Z,72.38
2023-03-31T08:44:01.314Z,73.89
2023-03-31T08:45:00.559Z,74.96
2023-03-31T08:46:00.629Z,70.55
2023-03-31T08:47:00.603Z,72.81
2023-03-31T08:48:00.572Z,74.23
2023-03-31T08:49:00.601Z,70.90
2023-03-31T08:50:00.551Z,73.31
2023-03-31T08:51:00.530Z,66.68
2023-03-31T08:52:00.534Z,71.21
2023-03-31T08:53:00.538Z,71.00
2023-03-31T08:54:00.516Z,72.20
2023-03-31T08:55:00.550Z,72.95
2023-03-31T08:56:00.544Z,76.06
2023-03-31T08:57:00.574Z,73.04
2023-03-31T08:58:00.490Z,71.81
2023-03-31T08:59:00.504Z,72.43
2023-03-31T09:00:00.488Z,63.69
2023-03-31T09:01:00.510Z,73.37
2023-03-31T09:02:00.519Z,74.87
2023-03-31T09:03:00.576Z,70.87
2023-03-31T09:04:00.652Z,72.83
2023-03-31T09:05:00.538Z,67.54
2023-03-31T09:06:12.686Z,67.46
2023-03-31T09:07:02.436Z,67.24
2023-03-31T09:08:00.424Z,68.62
2023-03-31T09:09:00.395Z,73.90
2023-03-31T09:10:00.461Z,69.28
2023-03-31T09:11:00.404Z,72.79
2023-03-31T09:12:01.375Z,71.82
2023-03-31T09:13:00.374Z,68.38
2023-03-31T09:14:00.398Z,72.22
2023-03-31T09:15:00.366Z,70.74
2023-03-31T09:16:00.401Z,67.69
2023-03-31T09:17:00.393Z,67.27
2023-03-31T09:18:00.347Z,60.67
2023-03-31T09:19:00.342Z,70.52
2023-03-31T09:20:00.306Z,70.99
2023-03-31T09:21:00.332Z,69.61
2023-03-31T09:22:00.319Z,69.76
2023-03-31T09:23:00.328Z,67.60
2023-03-31T09:24:00.338Z,71.04
2023-03-31T09:25:00.296Z,71.84
2023-03-31T09:26:00.844Z,72.87
2023-03-31T09:27:00.283Z,69.72
2023-03-31T09:28:00.262Z,63.32
2023-03-31T09:29:00.305Z,72.62
2023-03-31T09:30:00.286Z,70.69
2023-03-31T09:31:00.257Z,66.48
2023-03-31T09:32:00.321Z,70.31
2023-03-31T09:33:00.226Z,71.04
2023-03-31T09:34:00.262Z,68.36
2023-03-31T09:35:00.222Z,69.81
2023-03-31T09:36:00.262Z,72.57
2023-03-31T09:37:00.255Z,68.54
2023-03-31T09:38:01.265Z,67.69
2023-03-31T09:39:00.223Z,64.08
2023-03-31T09:40:00.237Z,71.43
2023-03-31T09:41:00.241Z,69.91
2023-03-31T09:42:00.176Z,68.16
2023-03-31T09:43:00.188Z,65.14
2023-03-31T09:44:00.181Z,68.41
2023-03-31T09:45:00.173Z,66.38
2023-03-31T09:46:08.553Z,68.18
2023-03-31T09:47:02.158Z,67.64
2023-03-31T09:48:00.245Z,70.36
2023-03-31T09:49:00.158Z,73.81
2023-03-31T09:50:00.264Z,72.12
2023-03-31T09:51:00.136Z,68.64
2023-03-31T09:52:00.084Z,69.79
2023-03-31T09:53:00.136Z,62.83
2023-03-31T09:54:01.078Z,63.13
2023-03-31T09:55:00.104Z,70.49
2023-03-31T09:56:00.137Z,68.53
2023-03-31T09:57:00.098Z,69.61
2023-03-31T09:58:00.131Z,71.86
2023-03-31T09:59:00.192Z,65.17
2023-03-31T09:59:59.999Z,64.51
2023-03-31T10:01:00.052Z,67.40
2023-03-31T10:02:00.197Z,68.96
2023-03-31T10:03:00.052Z,67.76
2023-03-31T10:04:00.002Z,67.30
2023-03-31T10:04:59.986Z,68.60
2023-03-31T10:05:59.985Z,65.09
2023-03-31T10:06:59.938Z,69.26
2023-03-31T10:07:59.923Z,67.90
2023-03-31T10:08:59.933Z,66.87
2023-03-31T10:09:59.984Z,68.12
2023-03-31T10:10:59.928Z,68.51
2023-03-31T10:11:59.925Z,66.80
2023-03-31T10:12:59.948Z,65.95
2023-03-31T10:13:59.979Z,67.92
2023-03-31T10:14:59.954Z,70.28
2023-03-31T10:15:59.909Z,66.28
2023-03-31T10:16:59.913Z,65.92
2023-03-31T10:17:59.900Z,72.64
2023-03-31T10:18:59.910Z,71.65
2023-03-31T10:19:59.874Z,68.12
2023-03-31T10:20:59.834Z,65.01
2023-03-31T10:21:59.829Z,73.61
2023-03-31T10:22:59.822Z,72.16
2023-03-31T10:23:59.815Z,66.53
2023-03-31T10:25:00.018Z,67.86
2023-03-31T10:25:59.833Z,67.13
2023-03-31T10:27:01.025Z,67.25
2023-03-31T10:27:59.777Z,72.62
2023-03-31T10:28:59.770Z,66.38
2023-03-31T10:29:59.839Z,71.65
2023-03-31T10:30:59.763Z,68.91
2023-03-31T10:31:59.797Z,65.24
2023-03-31T10:34:00.701Z,67.26
2023-03-31T10:34:59.720Z,69.25
2023-03-31T10:35:59.821Z,71.73
2023-03-31T10:36:59.730Z,65.84
2023-03-31T10:37:59.726Z,68.58
2023-03-31T10:38:59.703Z,67.79
2023-03-31T10:39:59.767Z,70.28
2023-03-31T10:40:59.835Z,67.59
2023-03-31T10:41:59.701Z,70.34
2023-03-31T10:42:59.683Z,68.11
2023-03-31T10:43:59.669Z,68.44
2023-03-31T10:44:59.676Z,67.98
2023-03-31T10:45:59.678Z,64.83
2023-03-31T10:46:59.734Z,71.59
2023-03-31T10:47:59.682Z,66.88
2023-03-31T10:48:59.609Z,65.41
2023-03-31T10:50:00.618Z,62.68
2023-03-31T10:50:59.601Z,69.40
2023-03-31T10:51:59.581Z,69.80
2023-03-31T10:52:59.637Z,67.18
2023-03-31T10:53:59.590Z,65.97
2023-03-31T10:54:59.659Z,68.28
2023-03-31T10:55:59.667Z,65.16
2023-03-31T10:56:59.672Z,68.66
2023-03-31T10:57:59.558Z,63.37
2023-03-31T10:59:05.642Z,69.12
2023-03-31T11:00:01.516Z,63.42
2023-03-31T11:00:59.522Z,67.53
2023-03-31T11:02:00.588Z,67.49
2023-03-31T11:03:01.169Z,69.51
2023-03-31T11:03:59.600Z,69.43
2023-03-31T11:04:59.529Z,67.98
2023-03-31T11:05:59.520Z,65.13
2023-03-31T11:06:59.474Z,68.61
2023-03-31T11:07:59.461Z,67.62
2023-03-31T11:08:59.457Z,69.16
2023-03-31T11:09:59.457Z,70.50
2023-03-31T11:10:59.450Z,67.67
2023-03-31T11:11:59.963Z,70.40
2023-03-31T11:13:00.000Z,67.29
2023-03-31T11:13:59.457Z,69.23
2023-03-31T11:14:59.452Z,70.43
2023-03-31T11:15:59.474Z,68.70
2023-03-31T11:16:59.441Z,65.84
2023-03-31T11:17:59.403Z,71.09
2023-03-31T11:18:59.399Z,66.14
2023-03-31T11:19:59.415Z,73.60
2023-03-31T11:20:59.411Z,70.74
2023-03-31T11:21:59.998Z,68.58
2023-03-31T11:22:59.373Z,68.40
2023-03-31T11:23:59.354Z,70.82
2023-03-31T11:24:59.360Z,68.10
2023-03-31T11:25:59.351Z,71.47
2023-03-31T11:26:59.336Z,69.07
2023-03-31T11:28:00.364Z,68.91
2023-03-31T11:28:59.359Z,70.76
2023-03-31T11:29:59.298Z,69.83
2023-03-31T11:30:59.318Z,70.90
2023-03-31T11:31:59.379Z,69.61
2023-03-31T11:32:59.299Z,68.42
2023-03-31T11:33:59.268Z,66.96
2023-03-31T11:34:59.281Z,65.19
2023-03-31T11:35:59.304Z,71.06
2023-03-31T11:36:59.319Z,71.00
2023-03-31T11:37:59.215Z,68.50
2023-03-31T11:38:59.240Z,68.70
2023-03-31T11:39:59.256Z,64.31
2023-03-31T11:40:59.216Z,65.37
2023-03-31T11:41:59.249Z,71.83
2023-03-31T11:42:59.243Z,69.26
2023-03-31T11:43:59.187Z,70.26
2023-03-31T11:44:59.182Z,68.25
2023-03-31T11:45:59.206Z,67.57
2023-03-31T11:46:59.282Z,68.02
2023-03-31T11:47:59.281Z,67.83
2023-03-31T11:48:59.202Z,71.92
2023-03-31T11:50:00.006Z,68.12
2023-03-31T11:50:59.149Z,69.04
2023-03-31T11:51:59.124Z,70.70
2023-03-31T11:52:59.145Z,67.84
2023-03-31T11:53:59.095Z,61.72
2023-03-31T11:55:01.464Z,69.91
2023-03-31T11:55:59.150Z,71.41
2023-03-31T11:56:59.094Z,63.93
2023-03-31T11:57:59.108Z,68.44
2023-03-31T11:58:59.092Z,68.87
2023-03-31T11:59:59.118Z,67.29
2023-03-31T12:01:00.666Z,64.44
2023-03-31T12:01:59.111Z,72.26
2023-03-31T12:02:59.098Z,72.25
2023-03-31T12:03:59.127Z,67.25
2023-03-31T12:04:59.032Z,69.19
2023-03-31T12:05:59.068Z,67.96
2023-03-31T12:07:00.673Z,70.38
2023-03-31T12:07:58.989Z,70.32
2023-03-31T12:08:58.964Z,67.72
2023-03-31T12:09:59.009Z,70.79
2023-03-31T12:10:59.033Z,66.62
2023-03-31T12:11:59.010Z,72.17
2023-03-31T12:13:01.146Z,69.84
2023-03-31T12:13:58.958Z,69.55
2023-03-31T12:14:59.012Z,68.12
2023-03-31T12:15:58.968Z,70.68
2023-03-31T12:16:58.977Z,69.58
2023-03-31T12:17:59.008Z,68.99
2023-03-31T12:18:58.903Z,70.04
2023-03-31T12:19:58.949Z,71.53
2023-03-31T12:20:58.923Z,67.19
2023-03-31T12:21:58.887Z,69.61
2023-03-31T12:22:58.925Z,71.11
2023-03-31T12:23:59.431Z,66.94
2023-03-31T12:24:58.842Z,70.69
2023-03-31T12:25:58.900Z,70.86
2023-03-31T12:26:58.841Z,70.73
2023-03-31T12:27:58.870Z,68.65
2023-03-31T12:28:58.799Z,74.13
2023-03-31T12:29:58.800Z,66.28
2023-03-31T12:30:58.871Z,66.95
2023-03-31T12:31:58.782Z,71.11
2023-03-31T12:32:58.834Z,66.62
2023-03-31T12:33:58.817Z,70.84
2023-03-31T12:34:58.776Z,70.71
2023-03-31T12:35:58.885Z,69.14
2023-03-31T12:36:58.769Z,74.34
2023-03-31T12:37:58.766Z,66.90
2023-03-31T12:38:58.755Z,70.13
2023-03-31T12:39:58.764Z,68.61
2023-03-31T12:40:58.759Z,65.70
2023-03-31T12:41:58.764Z,69.16
2023-03-31T12:42:58.761Z,70.67
2023-03-31T12:43:58.742Z,71.06
2023-03-31T12:44:58.686Z,68.12
2023-03-31T12:45:58.723Z,69.29
2023-03-31T12:46:58.819Z,71.21
2023-03-31T12:47:59.557Z,70.89
2023-03-31T12:48:58.762Z,68.49
2023-03-31T12:49:58.683Z,71.06
2023-03-31T12:50:58.728Z,66.88
2023-03-31T12:51:58.683Z,72.95
2023-03-31T12:52:58.684Z,71.66
2023-03-31T12:54:00.714Z,64.85
2023-03-31T12:55:00.551Z,70.01
2023-03-31T12:55:59.491Z,71.28
2023-03-31T12:56:58.693Z,74.94
2023-03-31T12:57:58.640Z,69.36
2023-03-31T12:58:58.635Z,68.74
2023-03-31T12:59:58.602Z,68.27
2023-03-31T13:00:58.653Z,67.23
2023-03-31T13:01:58.638Z,69.04
2023-03-31T13:02:58.652Z,67.02
2023-03-31T13:03:58.567Z,70.02
2023-03-31T13:04:58.619Z,66.96
2023-03-31T13:05:58.575Z,67.57
2023-03-31T13:06:58.554Z,70.71
2023-03-31T13:07:58.581Z,71.89
2023-03-31T13:08:58.569Z,74.05
2023-03-31T13:09:58.595Z,67.10